Time;durP1;ratioP1;P1;durP2;ratioP2;P2;SDS_P1;SDS_P2;PMS_P1;PMS_P2;Temp;Humidity;BMP_temperature;BMP_pressure;BME280_temperature;BME280_humidity;BME280_pressure;Samples;Min_cycle;Max_cycle;Signal;HPM_P1;HPM_P2
2021/08/03 00:01:25;;;;;;;;;;;;;;;16.35;50.95;100585.41;1647002;86;20181;-78
2021/08/03 00:04:11;;;;;;;;;;;;;;;16.32;51.00;100586.83;1636596;86;20427;-78
2021/08/03 00:06:44;;;;;;;;;;;;;;;16.28;51.08;100587.86;1647323;86;20438;-78
2021/08/03 00:09:10;;;;;;;;;;;;;;;16.24;51.16;100584.98;1645749;86;20553;-78
2021/08/03 00:11:39;;;;;;;;;;;;;;;16.18;51.13;100588.67;1645173;86;20091;-78
2021/08/03 00:14:05;;;;;;;;;;;;;;;16.14;51.18;100587.55;1637994;87;20427;-78
2021/08/03 00:16:37;;;;;;;;;;;;;;;16.10;51.26;100591.23;1646980;86;20403;-78
2021/08/03 00:19:03;;;;;;;;;;;;;;;16.02;51.31;100588.91;1644647;87;20425;-78
2021/08/03 00:21:29;;;;;;;;;;;;;;;15.97;51.35;100598.67;1631842;86;20422;-78
2021/08/03 00:23:55;;;;;;;;;;;;;;;15.92;51.42;100595.39;1644213;87;20174;-78
2021/08/03 00:26:22;;;;;;;;;;;;;;;15.85;51.43;100603.90;1647016;87;20119;-78
2021/08/03 00:28:51;;;;;;;;;;;;;;;15.80;51.52;100604.98;1645837;87;20107;-78
2021/08/03 00:31:24;;;;;;;;;;;;;;;15.72;51.51;100600.05;1638835;86;20425;-78
2021/08/03 00:33:52;;;;;;;;;;;;;;;15.63;51.63;100603.45;1639866;87;20107;-78
2021/08/03 00:36:19;;;;;;;;;;;;;;;15.58;51.66;100598.89;1641596;86;20435;-78
2021/08/03 00:38:46;;;;;;;;;;;;;;;15.52;51.71;100604.69;1638550;86;20427;-78
2021/08/03 00:41:15;;;;;;;;;;;;;;;15.48;51.81;100612.22;1646631;86;20159;-78
2021/08/03 00:43:41;;;;;;;;;;;;;;;15.41;51.80;100608.59;1625620;87;20439;-78
2021/08/03 00:46:07;;;;;;;;;;;;;;;15.33;51.85;100610.62;1640777;87;20210;-78
2021/08/03 00:48:33;;;;;;;;;;;;;;;15.28;51.99;100611.23;1645911;85;20127;-78
2021/08/03 00:50:59;;;;;;;;;;;;;;;15.16;51.98;100612.05;1642612;86;20091;-78
2021/08/03 00:53:25;;;;;;;;;;;;;;;15.11;52.11;100612.66;1642077;87;20139;-78
2021/08/03 00:55:52;;;;;;;;;;;;;;;15.08;52.14;100613.22;1645465;86;20115;-78
2021/08/03 00:58:18;;;;;;;;;;;;;;;15.03;52.26;100614.72;1641641;86;20115;-78
2021/08/03 01:00:44;;;;;;;;;;;;;;;14.97;52.26;100616.67;1645741;86;20113;-78
2021/08/03 01:03:10;;;;;;;;;;;;;;;14.95;52.36;100618.48;1639194;87;20216;-78
2021/08/03 01:05:41;;;;;;;;;;;;;;;14.89;52.40;100615.63;1639728;85;20103;-78
2021/08/03 01:08:38;;;;;;;;;;;;;;;14.85;52.48;100609.67;1628860;87;20135;-78
2021/08/03 01:11:08;;;;;;;;;;;;;;;14.83;52.48;100612.78;1647483;87;20127;-78
2021/08/03 01:14:07;;;;;;;;;;;;;;;14.79;52.52;100613.78;1640332;87;20103;-78
2021/08/03 01:16:37;;;;;;;;;;;;;;;14.76;52.60;100614.34;1638407;87;20138;-78
2021/08/03 01:19:20;;;;;;;;;;;;;;;14.72;52.64;100612.73;1624351;87;20113;-78
2021/08/03 01:22:07;;;;;;;;;;;;;;;14.69;52.72;100617.59;1632660;87;20139;-78
2021/08/03 01:24:44;;;;;;;;;;;;;;;14.66;52.72;100612.94;1626870;87;20099;-78
2021/08/03 01:27:39;;;;;;;;;;;;;;;14.63;52.78;100617.79;1647171;86;20092;-78
2021/08/03 01:30:06;;;;;;;;;;;;;;;14.60;52.83;100617.04;1646817;86;20139;-78
2021/08/03 01:32:34;;;;;;;;;;;;;;;14.57;52.89;100621.89;1642949;86;20091;-78
2021/08/03 01:35:00;;;;;;;;;;;;;;;14.54;52.90;100627.23;1642352;86;20143;-78
2021/08/03 01:37:28;;;;;;;;;;;;;;;14.53;52.98;100634.63;1629534;88;20144;-78
2021/08/03 01:39:58;;;;;;;;;;;;;;;14.51;53.05;100637.73;1623746;88;20091;-78
2021/08/03 01:42:24;;;;;;;;;;;;;;;14.48;53.14;100636.08;1629712;88;20131;-78
2021/08/03 01:44:52;;;;;;;;;;;;;;;14.48;53.15;100640.43;1627494;88;20138;-78
2021/08/03 01:47:20;;;;;;;;;;;;;;;14.47;53.22;100635.67;1620575;88;20459;-78
2021/08/03 01:49:51;;;;;;;;;;;;;;;14.45;53.29;100636.17;1629886;88;20100;-78
2021/08/03 01:52:18;;;;;;;;;;;;;;;14.45;53.42;100639.22;1658590;85;20112;-78
2021/08/03 01:54:47;;;;;;;;;;;;;;;14.44;53.47;100642.72;1664610;86;20547;-78
2021/08/03 01:57:15;;;;;;;;;;;;;;;14.42;53.56;100638.88;1665667;86;20184;-78
2021/08/03 01:59:43;;;;;;;;;;;;;;;14.43;53.62;100641.88;1662532;86;20159;-78
2021/08/03 02:02:09;;;;;;;;;;;;;;;14.44;53.66;100640.97;1659290;86;20601;-78
2021/08/03 02:04:36;;;;;;;;;;;;;;;14.44;53.74;100642.28;1665497;86;20456;-78
2021/08/03 02:07:03;;;;;;;;;;;;;;;14.45;53.78;100649.19;1655894;86;20151;-78
2021/08/03 02:09:29;;;;;;;;;;;;;;;14.46;53.86;100650.88;1660436;86;20574;-78
2021/08/03 02:11:56;;;;;;;;;;;;;;;14.47;53.91;100648.69;1665797;86;20567;-78
2021/08/03 02:14:24;;;;;;;;;;;;;;;14.46;53.93;100647.44;1668016;86;20116;-78
2021/08/03 02:16:51;;;;;;;;;;;;;;;14.44;53.98;100648.78;1662290;86;20088;-78
2021/08/03 02:19:17;;;;;;;;;;;;;;;14.39;53.99;100662.34;1657243;86;20101;-78
2021/08/03 02:21:44;;;;;;;;;;;;;;;14.33;54.17;100663.83;1650987;86;20139;-78
2021/08/03 02:24:10;;;;;;;;;;;;;;;14.33;54.31;100664.28;1666294;85;20124;-78
2021/08/03 02:26:36;;;;;;;;;;;;;;;14.34;54.33;100658.19;1652772;86;20125;-78
2021/08/03 02:29:03;;;;;;;;;;;;;;;14.35;54.40;100658.58;1661850;86;20136;-78
2021/08/03 02:31:48;;;;;;;;;;;;;;;14.36;54.43;100662.89;1657848;86;20101;-78
2021/08/03 02:34:30;;;;;;;;;;;;;;;14.38;54.55;100659.80;1658870;86;20149;-78
2021/08/03 02:36:58;;;;;;;;;;;;;;;14.40;54.69;100664.05;1661857;86;20447;-78
2021/08/03 02:39:33;;;;;;;;;;;;;;;14.43;54.73;100662.69;1662020;86;20184;-78
2021/08/03 02:42:00;;;;;;;;;;;;;;;14.48;54.81;100665.15;1650830;86;20218;-78
2021/08/03 02:44:27;;;;;;;;;;;;;;;14.51;54.74;100668.50;1667454;86;20216;-78
2021/08/03 02:46:56;;;;;;;;;;;;;;;14.52;54.82;100665.00;1655594;86;20814;-78
2021/08/03 02:49:45;;;;;;;;;;;;;;;14.55;54.87;100668.81;1664093;86;20160;-78
2021/08/03 02:52:05;;;;;;;;;;;;;;;14.58;54.98;100669.98;1661650;86;20125;-78
2021/08/03 02:54:36;;;;;;;;;;;;;;;14.62;54.95;100666.84;1652385;86;20108;-78
2021/08/03 02:57:04;;;;;;;;;;;;;;;14.64;55.04;100672.84;1657508;85;20129;-78
2021/08/03 02:59:33;;;;;;;;;;;;;;;14.67;55.08;100670.59;1664760;86;20141;-78
2021/08/03 03:02:08;;;;;;;;;;;;;;;14.69;55.09;100671.39;1640359;86;20156;-78
2021/08/03 03:04:46;;;;;;;;;;;;;;;14.68;55.04;100670.55;1660075;86;20172;-78
2021/08/03 03:07:21;;;;;;;;;;;;;;;14.67;55.06;100671.89;1657910;86;20109;-79
2021/08/03 03:09:48;;;;;;;;;;;;;;;14.67;55.13;100673.20;1652853;85;20096;-79
2021/08/03 03:12:14;;;;;;;;;;;;;;;14.64;55.14;100675.89;1664825;85;20140;-78
2021/08/03 03:14:43;;;;;;;;;;;;;;;14.62;55.15;100677.70;1659983;86;20105;-78
2021/08/03 03:17:11;;;;;;;;;;;;;;;14.56;55.17;100675.69;1663828;86;20145;-78
2021/08/03 03:19:38;;;;;;;;;;;;;;;14.53;55.21;100678.41;1656928;85;20133;-78
2021/08/03 03:22:06;;;;;;;;;;;;;;;14.50;55.23;100676.36;1664108;86;20124;-78
2021/08/03 03:24:35;;;;;;;;;;;;;;;14.45;55.27;100676.95;1660066;84;20133;-78
2021/08/03 03:27:03;;;;;;;;;;;;;;;14.39;55.29;100681.86;1653735;85;20088;-78
2021/08/03 03:29:29;;;;;;;;;;;;;;;14.37;55.34;100677.60;1662346;84;20112;-78
2021/08/03 03:31:56;;;;;;;;;;;;;;;14.34;55.39;100679.84;1655192;86;20129;-78
2021/08/03 03:34:24;;;;;;;;;;;;;;;14.31;55.39;100680.39;1657904;86;20158;-78
2021/08/03 03:36:50;;;;;;;;;;;;;;;14.28;55.41;100686.98;1667889;85;20129;-78
2021/08/03 03:39:17;;;;;;;;;;;;;;;14.24;55.47;100681.02;1667271;86;20137;-78
2021/08/03 03:41:46;;;;;;;;;;;;;;;14.21;55.52;100682.41;1666049;86;20140;-78
2021/08/03 03:44:12;;;;;;;;;;;;;;;14.18;55.56;100678.59;1661659;86;20164;-78
2021/08/03 03:46:43;;;;;;;;;;;;;;;14.17;55.66;100676.89;1666153;86;20277;-78
2021/08/03 03:49:22;;;;;;;;;;;;;;;14.15;55.66;100677.39;1654667;85;20131;-78
2021/08/03 03:51:48;;;;;;;;;;;;;;;14.13;55.68;100684.38;1654045;85;20139;-78
2021/08/03 03:54:20;;;;;;;;;;;;;;;14.11;55.72;100685.73;1661376;86;20140;-78
2021/08/03 03:56:53;;;;;;;;;;;;;;;14.09;55.74;100690.12;1663237;86;20088;-78
2021/08/03 03:59:21;;;;;;;;;;;;;;;14.05;55.81;100688.50;1659810;85;20136;-77
2021/08/03 04:01:51;;;;;;;;;;;;;;;14.05;55.83;100696.31;1669170;86;20133;-77
2021/08/03 04:04:22;;;;;;;;;;;;;;;14.02;55.89;100701.63;1664501;86;20139;-78
2021/08/03 04:06:48;;;;;;;;;;;;;;;14.01;55.93;100701.22;1658575;86;20555;-78
2021/08/03 04:09:22;;;;;;;;;;;;;;;14.00;55.99;100697.37;1660472;86;20163;-78
2021/08/03 04:11:53;;;;;;;;;;;;;;;14.00;56.03;100696.92;1642840;86;20159;-78
2021/08/03 04:14:25;;;;;;;;;;;;;;;14.00;56.12;100699.52;1652973;86;20203;-78
2021/08/03 04:16:51;;;;;;;;;;;;;;;14.01;56.14;100693.88;1652805;86;20753;-78
2021/08/03 04:19:18;;;;;;;;;;;;;;;14.01;56.13;100704.27;1664924;86;20514;-78
2021/08/03 04:21:46;;;;;;;;;;;;;;;13.99;56.23;100707.36;1650617;85;20131;-78
2021/08/03 04:24:16;;;;;;;;;;;;;;;13.99;56.25;100706.06;1669048;86;20157;-78
2021/08/03 04:26:42;;;;;;;;;;;;;;;13.97;56.35;100703.50;1648599;85;20131;-78
2021/08/03 04:29:16;;;;;;;;;;;;;;;13.98;56.43;100705.20;1663835;86;20156;-78
2021/08/03 04:31:42;;;;;;;;;;;;;;;14.00;56.47;100705.16;1643126;86;20139;-78
2021/08/03 04:34:08;;;;;;;;;;;;;;;13.99;56.52;100705.61;1664758;86;20149;-78
2021/08/03 04:36:35;;;;;;;;;;;;;;;14.03;56.58;100705.08;1666354;85;20446;-78
2021/08/03 04:39:01;;;;;;;;;;;;;;;14.02;56.58;100706.83;1653909;85;20149;-78
2021/08/03 04:41:28;;;;;;;;;;;;;;;14.01;56.70;100707.72;1664862;85;20160;-78
2021/08/03 04:43:54;;;;;;;;;;;;;;;14.04;56.87;100704.15;1658840;85;20096;-78
2021/08/03 04:46:20;;;;;;;;;;;;;;;14.04;56.80;100706.75;1657328;85;20838;-78
2021/08/03 04:48:46;;;;;;;;;;;;;;;14.05;56.94;100709.30;1670625;84;20188;-78
2021/08/03 04:51:12;;;;;;;;;;;;;;;14.07;57.01;100710.11;1664906;85;20136;-78
2021/08/03 04:53:39;;;;;;;;;;;;;;;14.12;57.09;100709.98;1673062;85;20124;-78
2021/08/03 04:56:05;;;;;;;;;;;;;;;14.17;57.08;100711.55;1657854;85;20155;-78
2021/08/03 04:58:31;;;;;;;;;;;;;;;14.21;57.06;100713.62;1663271;85;20127;-77
2021/08/03 05:00:57;;;;;;;;;;;;;;;14.25;57.19;100713.94;1670025;85;20129;-78
2021/08/03 05:03:23;;;;;;;;;;;;;;;14.31;57.27;100708.55;1665350;85;20199;-78
2021/08/03 05:05:50;;;;;;;;;;;;;;;14.38;57.15;100710.52;1671546;84;32672;-78
2021/08/03 05:08:16;;;;;;;;;;;;;;;14.43;57.33;100713.42;1672970;84;20211;-78
2021/08/03 05:10:42;;;;;;;;;;;;;;;14.52;57.47;100713.14;1673103;84;20191;-78
2021/08/03 05:13:08;;;;;;;;;;;;;;;14.64;57.20;100717.53;1672432;85;20164;-78
2021/08/03 05:15:34;;;;;;;;;;;;;;;14.79;57.67;100719.66;1665445;85;20117;-78
2021/08/03 05:18:00;;;;;;;;;;;;;;;15.09;57.70;100725.16;1671959;85;20179;-78
2021/08/03 05:20:28;;;;;;;;;;;;;;;15.60;58.09;100722.19;1658799;85;20140;-78
2021/08/03 05:22:54;;;;;;;;;;;;;;;16.23;58.04;100722.41;1673398;85;20117;-78
2021/08/03 05:25:20;;;;;;;;;;;;;;;16.97;57.97;100723.48;1672085;85;20153;-78
2021/08/03 05:27:47;;;;;;;;;;;;;;;17.73;57.67;100724.15;1672116;85;20160;-79
2021/08/03 05:30:12;;;;;;;;;;;;;;;18.45;57.43;100729.12;1672554;85;20254;-79
2021/08/03 05:32:41;;;;;;;;;;;;;;;19.17;57.31;100721.73;1666769;85;20159;-79
2021/08/03 05:35:08;;;;;;;;;;;;;;;19.87;57.09;100718.56;1666759;85;20148;-79
2021/08/03 05:37:35;;;;;;;;;;;;;;;20.58;56.71;100723.01;1669860;85;20130;-79
2021/08/03 05:40:05;;;;;;;;;;;;;;;21.13;56.14;100724.64;1657818;85;20157;-79
2021/08/03 05:42:29;;;;;;;;;;;;;;;21.54;56.15;100720.89;1668351;84;20558;-79
2021/08/03 05:44:55;;;;;;;;;;;;;;;22.00;56.06;100720.71;1665498;85;20220;-79
2021/08/03 05:47:21;;;;;;;;;;;;;;;22.39;55.76;100713.43;1667232;85;20267;-79
2021/08/03 05:49:47;;;;;;;;;;;;;;;22.95;55.44;100720.32;1667857;85;20220;-79
2021/08/03 05:52:13;;;;;;;;;;;;;;;23.57;55.20;100719.70;1667711;85;20199;-79
2021/08/03 05:54:39;;;;;;;;;;;;;;;24.12;55.06;100723.29;1668172;85;20137;-79
2021/08/03 05:57:05;;;;;;;;;;;;;;;24.70;54.85;100720.44;1667524;85;20164;-79
2021/08/03 05:59:31;;;;;;;;;;;;;;;25.14;54.85;100715.83;1665090;85;20427;-78
2021/08/03 06:01:58;;;;;;;;;;;;;;;25.65;54.47;100721.61;1664912;85;20171;-78
2021/08/03 06:04:24;;;;;;;;;;;;;;;26.09;54.28;100718.59;1669170;85;20116;-78
2021/08/03 06:06:52;;;;;;;;;;;;;;;26.55;54.37;100717.56;1668167;85;20773;-78
2021/08/03 06:09:20;;;;;;;;;;;;;;;26.74;53.87;100722.22;1666111;84;20151;-78
2021/08/03 06:11:48;;;;;;;;;;;;;;;27.04;54.17;100715.71;1663250;84;20149;-76
2021/08/03 06:14:30;;;;;;;;;;;;;;;27.33;53.59;100722.08;1665022;85;20806;-76
2021/08/03 06:16:59;;;;;;;;;;;;;;;27.63;53.48;100720.45;1628568;86;20180;-76
2021/08/03 06:19:26;;;;;;;;;;;;;;;27.57;53.05;100724.92;1663951;85;20116;-76
2021/08/03 06:21:57;;;;;;;;;;;;;;;27.36;53.42;100719.66;1669154;85;20166;-76
2021/08/03 06:24:23;;;;;;;;;;;;;;;27.29;53.24;100721.14;1665917;85;20587;-76
2021/08/03 06:26:50;;;;;;;;;;;;;;;27.38;52.78;100718.20;1668853;85;20140;-76
2021/08/03 06:29:16;;;;;;;;;;;;;;;27.54;52.57;100715.44;1667188;85;20184;-76
2021/08/03 06:31:43;;;;;;;;;;;;;;;27.55;52.25;100714.95;1625917;86;20143;-76
2021/08/03 06:34:09;;;;;;;;;;;;;;;27.74;52.11;100718.20;1629881;86;20111;-76
2021/08/03 06:36:35;;;;;;;;;;;;;;;28.01;51.79;100717.98;1629765;86;20141;-76
2021/08/03 06:39:01;;;;;;;;;;;;;;;28.28;51.33;100722.70;1642873;86;20718;-76
2021/08/03 06:41:30;;;;;;;;;;;;;;;28.14;51.08;100720.86;1645538;86;20858;-76
2021/08/03 06:44:03;;;;;;;;;;;;;;;28.15;51.00;100717.23;1644825;86;20415;-76
2021/08/03 06:46:31;;;;;;;;;;;;;;;28.26;51.00;100723.31;1615791;86;20184;-77
2021/08/03 06:49:03;;;;;;;;;;;;;;;28.14;50.63;100723.03;1640579;86;20524;-76
2021/08/03 06:51:32;;;;;;;;;;;;;;;28.28;50.56;100721.37;1641076;87;20545;-76
2021/08/03 06:54:04;;;;;;;;;;;;;;;28.24;50.24;100717.30;1641695;86;20131;-76
2021/08/03 06:56:42;;;;;;;;;;;;;;;28.36;50.01;100718.52;1642724;86;20123;-76
2021/08/03 06:59:10;;;;;;;;;;;;;;;28.51;49.82;100721.98;1619492;87;20431;-76
2021/08/03 07:01:48;;;;;;;;;;;;;;;28.63;49.57;100717.34;1639177;87;20091;-76
2021/08/03 07:04:27;;;;;;;;;;;;;;;28.59;49.49;100716.81;1644101;87;20526;-76
2021/08/03 07:06:59;;;;;;;;;;;;;;;28.93;49.70;100718.59;1627434;87;20413;-76
2021/08/03 07:09:25;;;;;;;;;;;;;;;29.14;49.14;100721.58;1646305;86;20116;-79
2021/08/03 07:11:55;;;;;;;;;;;;;;;29.30;48.71;100719.17;1641985;85;20115;-81
2021/08/03 07:14:24;;;;;;;;;;;;;;;29.47;48.72;100714.48;1641431;85;20094;-81
2021/08/03 07:16:53;;;;;;;;;;;;;;;29.60;48.32;100711.50;1642133;86;20256;-80
2021/08/03 07:19:24;;;;;;;;;;;;;;;29.79;48.62;100715.91;1644662;87;20099;-81
2021/08/03 07:21:50;;;;;;;;;;;;;;;29.99;48.52;100716.18;1646257;86;20118;-81
2021/08/03 07:24:17;;;;;;;;;;;;;;;29.66;48.11;100713.56;1645606;86;20139;-81
2021/08/03 07:26:44;;;;;;;;;;;;;;;29.64;48.25;100715.04;1642579;86;20091;-81
2021/08/03 07:29:11;;;;;;;;;;;;;;;29.73;47.82;100718.66;1632789;85;20111;-81
2021/08/03 07:31:37;;;;;;;;;;;;;;;29.87;48.01;100716.86;1636019;86;20213;-81
2021/08/03 07:34:06;;;;;;;;;;;;;;;30.13;47.71;100718.39;1645437;87;20095;-81
2021/08/03 07:36:34;;;;;;;;;;;;;;;30.39;47.38;100723.00;1643830;87;20107;-81
2021/08/03 07:39:04;;;;;;;;;;;;;;;30.51;47.25;100726.64;1641826;87;20137;-81
2021/08/03 07:41:29;;;;;;;;;;;;;;;30.47;46.64;100725.27;1638341;87;20472;-81
2021/08/03 07:43:55;;;;;;;;;;;;;;;30.31;46.24;100718.41;1642258;86;20173;-81
2021/08/03 07:46:21;;;;;;;;;;;;;;;30.20;46.38;100718.61;1646781;86;20107;-81
2021/08/03 07:48:50;;;;;;;;;;;;;;;29.94;45.74;100731.28;1646315;86;20490;-81
2021/08/03 07:51:18;;;;;;;;;;;;;;;29.84;45.91;100721.64;1644979;86;20131;-81
2021/08/03 07:53:44;;;;;;;;;;;;;;;29.39;45.20;100722.31;1646528;87;20111;-81
2021/08/03 07:56:12;;;;;;;;;;;;;;;29.43;45.38;100717.09;1646565;86;20095;-81
2021/08/03 07:58:38;;;;;;;;;;;;;;;29.45;44.94;100716.45;1632149;86;20407;-81
2021/08/03 08:01:04;;;;;;;;;;;;;;;29.32;44.88;100723.38;1646752;86;21047;-81
2021/08/03 08:03:42;;;;;;;;;;;;;;;29.17;44.53;100723.95;1638573;86;20111;-81
2021/08/03 08:06:08;;;;;;;;;;;;;;;29.16;44.68;100723.12;1644728;87;20103;-81
2021/08/03 08:08:34;;;;;;;;;;;;;;;29.02;44.38;100730.72;1640077;86;20858;-82
2021/08/03 08:11:00;;;;;;;;;;;;;;;28.86;44.11;100720.14;1643242;86;20153;-82
2021/08/03 08:13:27;;;;;;;;;;;;;;;28.83;43.97;100719.58;1646509;86;20099;-82
2021/08/03 08:15:55;;;;;;;;;;;;;;;29.05;44.32;100718.45;1637259;86;20115;-82
2021/08/03 08:18:21;;;;;;;;;;;;;;;28.91;43.81;100714.39;1631605;86;20756;-82
2021/08/03 08:20:47;;;;;;;;;;;;;;;28.87;43.52;100720.98;1641132;86;20180;-82
2021/08/03 08:23:14;;;;;;;;;;;;;;;28.77;43.34;100719.61;1620883;87;20117;-82
2021/08/03 08:25:40;;;;;;;;;;;;;;;28.68;43.13;100714.63;1633948;87;20115;-82
2021/08/03 08:28:08;;;;;;;;;;;;;;;28.71;43.03;100716.17;1616357;88;20101;-82
2021/08/03 08:30:35;;;;;;;;;;;;;;;28.65;42.90;100718.05;1643387;87;20466;-82
2021/08/03 08:33:01;;;;;;;;;;;;;;;28.55;42.82;100722.55;1628719;87;20394;-82
2021/08/03 08:35:27;;;;;;;;;;;;;;;28.36;42.80;100719.84;1646124;86;20111;-82
2021/08/03 08:37:53;;;;;;;;;;;;;;;28.16;42.46;100714.44;1637456;87;20193;-82
2021/08/03 08:40:20;;;;;;;;;;;;;;;28.00;42.58;100717.63;1614067;88;20139;-82
2021/08/03 08:42:47;;;;;;;;;;;;;;;27.91;42.50;100721.09;1628770;87;20177;-82
2021/08/03 08:45:14;;;;;;;;;;;;;;;27.86;42.52;100713.16;1630050;87;20122;-82
2021/08/03 08:47:45;;;;;;;;;;;;;;;27.67;42.15;100710.76;1628672;88;20098;-82
2021/08/03 08:50:12;;;;;;;;;;;;;;;27.29;41.71;100709.19;1621485;86;20099;-81
2021/08/03 08:52:40;;;;;;;;;;;;;;;27.13;41.45;100718.93;1628025;87;20595;-81
2021/08/03 08:55:08;;;;;;;;;;;;;;;26.98;41.39;100709.61;1609116;88;20431;-81
2021/08/03 08:57:34;;;;;;;;;;;;;;;27.16;41.33;100713.84;1615912;88;20135;-80
2021/08/03 09:00:00;;;;;;;;;;;;;;;27.70;41.41;100713.64;1629935;87;20464;-81
2021/08/03 09:02:44;;;;;;;;;;;;;;;28.28;41.21;100720.03;1629797;87;20439;-81
2021/08/03 09:05:33;;;;;;;;;;;;;;;28.85;41.04;100717.61;1622017;86;20098;-81
2021/08/03 09:08:00;;;;;;;;;;;;;;;29.27;41.16;100724.30;1628457;88;20091;-80
2021/08/03 09:10:39;;;;;;;;;;;;;;;29.70;40.96;100710.95;1623769;86;20120;-78
2021/08/03 09:13:18;;;;;;;;;;;;;;;29.89;41.04;100721.55;1627543;86;20131;-78
2021/08/03 09:15:49;;;;;;;;;;;;;;;29.45;40.88;100720.45;1625006;86;20164;-78
2021/08/03 09:18:28;;;;;;;;;;;;;;;28.92;40.61;100711.59;1619569;86;20146;-78
2021/08/03 09:20:54;;;;;;;;;;;;;;;28.76;40.47;100723.73;1620688;86;20143;-77
2021/08/03 09:23:24;;;;;;;;;;;;;;;28.54;40.52;100729.69;1621344;86;20130;-77
2021/08/03 09:25:56;;;;;;;;;;;;;;;28.22;40.43;100727.71;1615209;88;20190;-77
2021/08/03 09:28:22;;;;;;;;;;;;;;;27.82;40.06;100729.02;1627505;86;20128;-77
2021/08/03 09:30:48;;;;;;;;;;;;;;;27.50;39.77;100727.30;1627497;86;20787;-77
2021/08/03 09:33:23;;;;;;;;;;;;;;;27.20;39.76;100726.73;1628073;88;20793;-77
2021/08/03 09:35:49;;;;;;;;;;;;;;;26.88;39.70;100717.47;1629240;86;20135;-77
2021/08/03 09:38:18;;;;;;;;;;;;;;;26.83;39.72;100724.12;1637797;87;20428;-77
2021/08/03 09:40:45;;;;;;;;;;;;;;;26.68;39.21;100719.09;1646217;86;20577;-77
2021/08/03 09:43:15;;;;;;;;;;;;;;;26.54;39.32;100715.39;1646187;86;20414;-77
2021/08/03 09:45:48;;;;;;;;;;;;;;;26.35;38.94;100718.72;1642130;86;20523;-77
2021/08/03 09:48:18;;;;;;;;;;;;;;;26.07;38.87;100715.22;1646476;87;20466;-77
2021/08/03 09:51:05;;;;;;;;;;;;;;;25.97;39.06;100715.61;1643693;87;20115;-77
2021/08/03 09:53:50;;;;;;;;;;;;;;;25.87;38.93;100723.44;1631602;87;20115;-77
2021/08/03 09:56:29;;;;;;;;;;;;;;;25.73;38.74;100713.07;1645727;87;20801;-77
2021/08/03 09:59:01;;;;;;;;;;;;;;;25.53;38.80;100709.76;1641805;86;20541;-76
2021/08/03 10:01:39;;;;;;;;;;;;;;;25.48;38.77;100718.05;1642649;86;20777;-76
2021/08/03 10:04:07;;;;;;;;;;;;;;;25.43;38.79;100718.08;1638843;86;21019;-76
2021/08/03 10:06:38;;;;;;;;;;;;;;;25.36;38.57;100716.38;1641709;85;20859;-76
2021/08/03 10:09:05;;;;;;;;;;;;;;;25.23;38.54;100722.23;1644661;86;20131;-76
2021/08/03 10:11:31;;;;;;;;;;;;;;;25.16;38.50;100719.67;1642921;87;20476;-76
2021/08/03 10:13:57;;;;;;;;;;;;;;;25.01;38.46;100718.54;1645295;86;20948;-76
2021/08/03 10:16:24;;;;;;;;;;;;;;;24.96;38.53;100716.72;1672445;84;20575;-76
2021/08/03 10:18:54;;;;;;;;;;;;;;;24.99;38.57;100719.61;1676339;84;20484;-77
2021/08/03 10:21:32;;;;;;;;;;;;;;;25.09;38.71;100708.70;1679248;84;20164;-78
2021/08/03 10:24:21;;;;;;;;;;;;;;;25.16;38.53;100718.36;1653404;85;20136;-78
2021/08/03 10:27:14;;;;;;;;;;;;;;;25.20;38.64;100711.87;1678675;85;20692;-78
2021/08/03 10:29:53;;;;;;;;;;;;;;;25.26;38.50;100729.94;1671208;83;20765;-77
2021/08/03 10:32:41;;;;;;;;;;;;;;;25.11;38.49;100720.02;1675989;85;20734;-77
2021/08/03 10:35:18;;;;;;;;;;;;;;;25.17;38.62;100713.42;1623972;87;20395;-77
2021/08/03 10:38:03;;;;;;;;;;;;;;;25.26;38.63;100719.35;1671711;84;20132;-77
2021/08/03 10:40:48;;;;;;;;;;;;;;;25.39;38.72;100716.14;1672495;85;20501;-77
2021/08/03 10:43:22;;;;;;;;;;;;;;;25.44;38.47;100716.63;1663011;85;20821;-77
2021/08/03 10:46:12;;;;;;;;;;;;;;;25.50;38.64;100721.42;1677869;84;20589;-77
2021/08/03 10:48:42;;;;;;;;;;;;;;;25.49;38.52;100721.55;1679782;85;20573;-77
2021/08/03 10:51:19;;;;;;;;;;;;;;;25.43;38.62;100720.24;1674978;85;20579;-77
2021/08/03 10:54:07;;;;;;;;;;;;;;;25.38;38.60;100717.95;1679620;84;20152;-78
2021/08/03 10:56:57;;;;;;;;;;;;;;;25.30;38.50;100724.78;1674025;85;20350;-78
2021/08/03 10:59:35;;;;;;;;;;;;;;;25.14;38.58;100725.56;1668048;85;20448;-77
2021/08/03 11:02:04;;;;;;;;;;;;;;;25.07;38.59;100724.70;1659861;85;20768;-77
2021/08/03 11:04:49;;;;;;;;;;;;;;;24.96;38.62;100723.81;1679431;84;20440;-77
2021/08/03 11:07:36;;;;;;;;;;;;;;;24.91;38.73;100718.86;1679572;85;20570;-77
2021/08/03 11:10:21;;;;;;;;;;;;;;;24.81;38.73;100720.49;1654638;84;20156;-77
2021/08/03 11:12:50;;;;;;;;;;;;;;;24.90;38.84;100723.78;1672271;84;20366;-77
2021/08/03 11:15:25;;;;;;;;;;;;;;;24.97;38.46;100722.85;1676726;84;20207;-77
2021/08/03 11:18:04;;;;;;;;;;;;;;;24.90;38.64;100721.62;1671030;85;20227;-77
2021/08/03 11:20:39;;;;;;;;;;;;;;;24.88;38.59;100724.38;1670552;85;20767;-77
2021/08/03 11:23:16;;;;;;;;;;;;;;;24.79;38.56;100718.91;1664828;84;20491;-77
2021/08/03 11:25:47;;;;;;;;;;;;;;;24.65;38.61;100718.60;1671635;85;20690;-77
2021/08/03 11:28:20;;;;;;;;;;;;;;;24.67;38.79;100718.02;1670533;85;20696;-77
2021/08/03 11:30:49;;;;;;;;;;;;;;;24.73;38.86;100715.77;1670772;84;20235;-77
2021/08/03 11:33:16;;;;;;;;;;;;;;;24.87;38.80;100715.23;1676963;84;20511;-77
2021/08/03 11:35:43;;;;;;;;;;;;;;;24.98;38.85;100719.25;1679847;84;20259;-77
2021/08/03 11:38:11;;;;;;;;;;;;;;;25.12;38.80;100719.06;1663290;84;20968;-77
2021/08/03 11:40:38;;;;;;;;;;;;;;;25.14;38.73;100711.85;1677755;85;20140;-77
2021/08/03 11:43:05;;;;;;;;;;;;;;;25.15;38.78;100710.89;1677917;84;20186;-77
2021/08/03 11:45:36;;;;;;;;;;;;;;;25.16;38.92;100709.09;1679399;85;20140;-77
2021/08/03 11:48:01;;;;;;;;;;;;;;;25.24;38.90;100698.29;1678861;85;20172;-77
2021/08/03 11:50:33;;;;;;;;;;;;;;;25.29;38.86;100701.44;1676889;85;20603;-77
2021/08/03 11:53:08;;;;;;;;;;;;;;;25.34;38.89;100701.92;1674540;85;20459;-77
2021/08/03 11:55:35;;;;;;;;;;;;;;;25.27;38.88;100698.54;1677675;85;20124;-77
2021/08/03 11:58:01;;;;;;;;;;;;;;;25.26;38.84;100695.05;1674446;85;20144;-77
2021/08/03 12:00:27;;;;;;;;;;;;;;;25.16;38.91;100694.53;1678457;84;20168;-77
2021/08/03 12:02:56;;;;;;;;;;;;;;;25.12;39.00;100685.98;1672105;84;20156;-77
2021/08/03 12:05:33;;;;;;;;;;;;;;;25.10;38.92;100683.09;1675672;84;20144;-77
2021/08/03 12:08:12;;;;;;;;;;;;;;;25.03;38.99;100686.67;1669466;85;20123;-77
2021/08/03 12:10:48;;;;;;;;;;;;;;;24.95;39.09;100687.25;1676982;85;20488;-77
2021/08/03 12:13:28;;;;;;;;;;;;;;;24.95;39.23;100690.38;1660670;85;20144;-77
2021/08/03 12:15:56;;;;;;;;;;;;;;;25.00;39.14;100689.07;1670650;85;20183;-77
2021/08/03 12:18:23;;;;;;;;;;;;;;;25.04;39.06;100681.27;1668199;85;20227;-77
2021/08/03 12:20:55;;;;;;;;;;;;;;;24.93;39.15;100686.52;1668334;85;20227;-77
2021/08/03 12:23:35;;;;;;;;;;;;;;;24.93;39.11;100679.91;1675394;85;20213;-77
2021/08/03 12:26:07;;;;;;;;;;;;;;;24.93;39.23;100676.41;1672410;85;20239;-77
2021/08/03 12:28:39;;;;;;;;;;;;;;;24.96;39.28;100670.42;1653766;85;20158;-77
2021/08/03 12:31:38;;;;;;;;;;;;;;;24.93;39.28;100675.09;1677751;85;20156;-77
2021/08/03 12:34:11;;;;;;;;;;;;;;;24.91;39.29;100673.04;1672844;85;20211;-77
2021/08/03 12:36:54;;;;;;;;;;;;;;;24.79;39.34;100670.83;1661808;85;20170;-77
2021/08/03 12:39:27;;;;;;;;;;;;;;;24.66;39.39;100664.77;1662126;85;20164;-77
2021/08/03 12:42:21;;;;;;;;;;;;;;;24.59;39.53;100662.20;1669573;85;20156;-77
2021/08/03 12:44:52;;;;;;;;;;;;;;;24.60;39.60;100660.77;1677252;85;20128;-77
2021/08/03 12:47:29;;;;;;;;;;;;;;;24.57;39.59;100664.11;1666280;85;20136;-77
2021/08/03 12:50:06;;;;;;;;;;;;;;;24.55;39.53;100664.70;1676630;84;20481;-77
2021/08/03 12:52:33;;;;;;;;;;;;;;;24.47;39.39;100664.42;1652426;85;20138;-77